Time;durP1;ratioP1;P1;durP2;ratioP2;P2;SDS_P1;SDS_P2;PMS_P1;PMS_P2;Temp;Humidity;BMP_temperature;BMP_pressure;BME280_temperature;BME280_humidity;BME280_pressure;Samples;Min_cycle;Max_cycle;Signal;HPM_P1;HPM_P2
2023/01/18 00:00:45;;;;;;;12.52;4.90;;;;;;;;;;5028923;28;20049;-80
2023/01/18 00:03:12;;;;;;;12.15;5.22;;;;;;;;;;5012713;28;20128;-80
2023/01/18 00:05:42;;;;;;;13.52;5.10;;;;;;;;;;5013120;28;20088;-80
2023/01/18 00:08:09;;;;;;;12.60;5.60;;;;;;;;;;5033455;28;20052;-80
2023/01/18 00:10:36;;;;;;;14.75;5.30;;;;;;;;;;5035741;28;20083;-80
2023/01/18 00:13:03;;;;;;;11.15;5.18;;;;;;;;;;5036923;28;20152;-81
2023/01/18 00:15:30;;;;;;;10.27;5.28;;;;;;;;;;5027306;28;20060;-80
2023/01/18 00:17:56;;;;;;;11.30;5.15;;;;;;;;;;5034166;28;20179;-79
2023/01/18 00:20:24;;;;;;;14.80;6.15;;;;;;;;;;5032131;28;20049;-80
2023/01/18 00:22:51;;;;;;;9.85;5.13;;;;;;;;;;5034169;28;20110;-80
2023/01/18 00:25:18;;;;;;;13.77;5.50;;;;;;;;;;5032041;28;20499;-80
2023/01/18 00:27:46;;;;;;;15.68;5.55;;;;;;;;;;5030253;28;20056;-79
2023/01/18 00:30:13;;;;;;;13.38;5.45;;;;;;;;;;5024537;28;20088;-80
2023/01/18 00:32:39;;;;;;;12.60;5.20;;;;;;;;;;5044193;28;20053;-81
2023/01/18 00:35:07;;;;;;;15.07;5.57;;;;;;;;;;5035089;28;20064;-80
2023/01/18 00:37:34;;;;;;;11.18;4.95;;;;;;;;;;5033870;28;20240;-79
2023/01/18 00:40:00;;;;;;;11.73;5.18;;;;;;;;;;5034350;28;20046;-80
2023/01/18 00:45:12;;;;;;;11.27;4.85;;;;;;;;;;5032800;28;20164;-80
2023/01/18 00:47:38;;;;;;;12.32;5.50;;;;;;;;;;5033322;28;20965;-81
2023/01/18 00:50:05;;;;;;;12.48;4.82;;;;;;;;;;5033751;28;20049;-80
2023/01/18 00:52:33;;;;;;;13.88;5.10;;;;;;;;;;5033780;28;20071;-81
2023/01/18 00:55:00;;;;;;;15.15;5.65;;;;;;;;;;5033749;28;20117;-80
2023/01/18 00:57:27;;;;;;;10.07;4.88;;;;;;;;;;5034687;28;20106;-81
2023/01/18 00:59:53;;;;;;;11.05;5.13;;;;;;;;;;5038049;28;20050;-79
2023/01/18 01:02:19;;;;;;;12.25;5.18;;;;;;;;;;5038946;28;20100;-81
2023/01/18 01:07:31;;;;;;;12.55;5.35;;;;;;;;;;5041908;28;20052;-81
2023/01/18 01:09:58;;;;;;;14.18;5.20;;;;;;;;;;5022042;28;20449;-80
2023/01/18 01:26:10;;;;;;;9.88;4.68;;;;;;;;;;5031527;28;20129;-79
2023/01/18 01:28:38;;;;;;;10.85;4.85;;;;;;;;;;5034247;28;20088;-79
2023/01/18 01:31:06;;;;;;;10.82;4.40;;;;;;;;;;5029723;28;20045;-80
2023/01/18 01:33:33;;;;;;;10.77;4.85;;;;;;;;;;5033377;28;20049;-79
2023/01/18 01:36:01;;;;;;;13.13;4.80;;;;;;;;;;5017289;28;20045;-78
2023/01/18 01:38:28;;;;;;;10.82;4.93;;;;;;;;;;5032905;28;20422;-79
2023/01/18 01:40:55;;;;;;;12.30;5.03;;;;;;;;;;5032555;28;20432;-79
2023/01/18 01:43:36;;;;;;;11.50;5.03;;;;;;;;;;5033669;28;20163;-77
2023/01/18 01:46:03;;;;;;;11.10;4.60;;;;;;;;;;5033264;28;20053;-80
2023/01/18 01:48:29;;;;;;;12.63;4.65;;;;;;;;;;5033660;28;20088;-79
2023/01/18 01:50:56;;;;;;;10.07;4.85;;;;;;;;;;5033378;28;20049;-78
2023/01/18 01:53:23;;;;;;;11.65;4.65;;;;;;;;;;5034947;28;20064;-79
2023/01/18 01:55:49;;;;;;;11.77;4.57;;;;;;;;;;5033112;28;20117;-78
2023/01/18 01:58:23;;;;;;;11.77;4.90;;;;;;;;;;5032512;28;20049;-79
2023/01/18 02:00:49;;;;;;;9.70;4.40;;;;;;;;;;5030094;28;20084;-81
2023/01/18 02:03:19;;;;;;;10.82;4.35;;;;;;;;;;5028685;28;20290;-79
2023/01/18 02:05:48;;;;;;;11.98;4.50;;;;;;;;;;5031583;28;20064;-80
2023/01/18 02:08:21;;;;;;;13.43;4.65;;;;;;;;;;5031072;28;20485;-79
2023/01/18 02:10:47;;;;;;;13.20;4.45;;;;;;;;;;5031362;28;20081;-81
2023/01/18 02:13:14;;;;;;;9.93;4.50;;;;;;;;;;5031071;28;20102;-79
2023/01/18 02:15:46;;;;;;;10.43;4.57;;;;;;;;;;5020314;28;20689;-78
2023/01/18 02:18:18;;;;;;;10.23;4.53;;;;;;;;;;5030446;28;20080;-79
2023/01/18 02:21:09;;;;;;;11.73;4.90;;;;;;;;;;5016894;28;20041;-79
2023/01/18 02:23:58;;;;;;;11.40;4.15;;;;;;;;;;5016665;28;20042;-79
2023/01/18 02:26:43;;;;;;;12.43;4.53;;;;;;;;;;5031043;28;20046;-79
2023/01/18 02:29:16;;;;;;;10.63;4.85;;;;;;;;;;5013574;28;20060;-78
2023/01/18 02:31:52;;;;;;;12.05;4.78;;;;;;;;;;5029643;28;20084;-78
2023/01/18 02:34:29;;;;;;;10.07;4.72;;;;;;;;;;5030445;28;20045;-78
2023/01/18 02:37:03;;;;;;;11.98;4.38;;;;;;;;;;5031742;28;20042;-80
2023/01/18 02:39:48;;;;;;;9.25;4.10;;;;;;;;;;5029789;28;20061;-79
2023/01/18 02:48:31;;;;;;;12.48;4.70;;;;;;;;;;4997429;28;20068;-80
2023/01/18 02:50:57;;;;;;;7.90;4.00;;;;;;;;;;5036200;28;20049;-80
2023/01/18 02:53:24;;;;;;;10.13;4.28;;;;;;;;;;5036768;28;20137;-79
2023/01/18 02:55:59;;;;;;;11.93;4.68;;;;;;;;;;5027542;28;20056;-80
2023/01/18 02:58:30;;;;;;;11.05;4.40;;;;;;;;;;5026707;28;20037;-79
2023/01/18 03:01:07;;;;;;;12.70;4.53;;;;;;;;;;5029568;28;20490;-79
2023/01/18 03:03:34;;;;;;;14.32;5.38;;;;;;;;;;5029564;28;20504;-79
2023/01/18 03:06:02;;;;;;;14.45;4.80;;;;;;;;;;5031658;28;20045;-78
2023/01/18 03:08:35;;;;;;;14.05;5.05;;;;;;;;;;5031166;28;20049;-80
2023/01/18 03:11:04;;;;;;;8.95;4.50;;;;;;;;;;5030319;28;20065;-79
2023/01/18 03:13:34;;;;;;;10.05;4.65;;;;;;;;;;5031452;28;20045;-78
2023/01/18 03:16:04;;;;;;;12.88;5.13;;;;;;;;;;5031437;28;20053;-80
2023/01/18 03:18:59;;;;;;;11.70;4.90;;;;;;;;;;5030906;28;20068;-79
2023/01/18 03:21:36;;;;;;;12.05;4.88;;;;;;;;;;5031735;28;20069;-79
2023/01/18 03:24:04;;;;;;;12.38;5.00;;;;;;;;;;5030219;28;20089;-79
2023/01/18 03:26:34;;;;;;;11.75;5.32;;;;;;;;;;5029853;28;20045;-80
2023/01/18 03:34:40;;;;;;;13.65;5.60;;;;;;;;;;5030840;28;20094;-79
2023/01/18 03:37:12;;;;;;;12.93;5.75;;;;;;;;;;5031464;28;20045;-79
2023/01/18 03:39:44;;;;;;;11.02;5.57;;;;;;;;;;5030468;28;20067;-80
2023/01/18 03:42:15;;;;;;;15.10;5.53;;;;;;;;;;5030961;28;20049;-80
2023/01/18 03:44:48;;;;;;;11.80;6.07;;;;;;;;;;5029812;28;20049;-80
2023/01/18 03:47:15;;;;;;;16.08;6.25;;;;;;;;;;5031273;28;20058;-79
2023/01/18 03:49:41;;;;;;;13.93;6.47;;;;;;;;;;5030660;28;20045;-79
2023/01/18 03:52:08;;;;;;;15.07;6.57;;;;;;;;;;5032073;28;20133;-78
2023/01/18 03:54:39;;;;;;;14.00;5.88;;;;;;;;;;5030843;28;20645;-80
2023/01/18 03:57:23;;;;;;;16.13;6.32;;;;;;;;;;5031015;28;20041;-78
2023/01/18 03:59:50;;;;;;;15.82;6.22;;;;;;;;;;5031612;28;20494;-81
2023/01/18 04:02:17;;;;;;;15.93;6.18;;;;;;;;;;5031798;28;20049;-82
2023/01/18 04:04:43;;;;;;;14.75;6.00;;;;;;;;;;5031911;28;20059;-80
2023/01/18 04:07:10;;;;;;;11.27;5.75;;;;;;;;;;5034834;28;20124;-81
2023/01/18 04:09:36;;;;;;;16.40;6.75;;;;;;;;;;5033159;28;20065;-78
2023/01/18 04:12:03;;;;;;;16.00;6.80;;;;;;;;;;5034861;28;20072;-79
2023/01/18 04:14:29;;;;;;;19.77;8.18;;;;;;;;;;5035052;28;20067;-81
2023/01/18 04:16:56;;;;;;;25.17;9.18;;;;;;;;;;5040794;28;20052;-80
2023/01/18 04:19:22;;;;;;;25.20;9.40;;;;;;;;;;5034874;28;20050;-80
2023/01/18 04:21:49;;;;;;;16.13;6.55;;;;;;;;;;5034979;28;20053;-80
2023/01/18 04:24:16;;;;;;;17.98;7.22;;;;;;;;;;5034227;28;20049;-79
2023/01/18 04:26:42;;;;;;;18.83;6.93;;;;;;;;;;5034442;28;20322;-80
2023/01/18 04:29:09;;;;;;;16.25;7.07;;;;;;;;;;5034575;28;20057;-81
2023/01/18 04:31:36;;;;;;;16.60;7.63;;;;;;;;;;5031864;28;20053;-80
2023/01/18 04:34:02;;;;;;;15.90;6.95;;;;;;;;;;5002847;28;20060;-81
2023/01/18 04:36:29;;;;;;;14.68;6.93;;;;;;;;;;5026004;28;20085;-80
2023/01/18 04:38:56;;;;;;;18.88;6.88;;;;;;;;;;4998608;28;20046;-81
2023/01/18 04:41:22;;;;;;;15.55;6.55;;;;;;;;;;5014768;28;20540;-80
2023/01/18 04:43:49;;;;;;;19.65;7.13;;;;;;;;;;5014532;28;20054;-80
2023/01/18 04:46:15;;;;;;;17.73;7.47;;;;;;;;;;5014129;28;20042;-79
2023/01/18 04:48:42;;;;;;;21.10;9.50;;;;;;;;;;5014413;28;20157;-79
2023/01/18 04:51:12;;;;;;;49.15;19.25;;;;;;;;;;5015168;28;20153;-79
2023/01/18 04:53:41;;;;;;;64.07;24.45;;;;;;;;;;5014421;28;20085;-80
2023/01/18 04:56:08;;;;;;;23.80;11.35;;;;;;;;;;5014176;28;20117;-80
2023/01/18 04:58:34;;;;;;;17.02;8.98;;;;;;;;;;5014741;28;20054;-79
2023/01/18 05:01:01;;;;;;;20.25;9.40;;;;;;;;;;5018051;28;20099;-78
2023/01/18 05:03:36;;;;;;;26.90;9.68;;;;;;;;;;5014613;28;20046;-79
2023/01/18 05:06:08;;;;;;;25.55;10.43;;;;;;;;;;4996926;28;20129;-78
2023/01/18 05:08:34;;;;;;;20.92;9.50;;;;;;;;;;4995953;28;20512;-81
2023/01/18 05:11:02;;;;;;;18.55;8.10;;;;;;;;;;5002509;28;20054;-79
2023/01/18 05:13:29;;;;;;;16.75;7.75;;;;;;;;;;5036751;28;20049;-80
2023/01/18 05:15:55;;;;;;;21.10;8.43;;;;;;;;;;5034605;28;20065;-80
2023/01/18 05:18:22;;;;;;;21.23;8.52;;;;;;;;;;5033277;28;20393;-81
2023/01/18 05:20:48;;;;;;;15.57;7.55;;;;;;;;;;5034231;28;20073;-78
2023/01/18 05:23:15;;;;;;;17.55;8.02;;;;;;;;;;5034036;28;20053;-80
2023/01/18 05:25:42;;;;;;;17.00;8.10;;;;;;;;;;5036630;28;20046;-80
2023/01/18 05:28:08;;;;;;;14.65;7.75;;;;;;;;;;5032065;28;20145;-79
2023/01/18 05:30:37;;;;;;;16.35;7.93;;;;;;;;;;5035757;28;20096;-78
2023/01/18 05:33:04;;;;;;;16.65;7.53;;;;;;;;;;5038052;28;20049;-79
2023/01/18 05:35:30;;;;;;;18.67;8.32;;;;;;;;;;5035379;28;20053;-79
2023/01/18 05:37:57;;;;;;;15.13;8.00;;;;;;;;;;5040429;28;20056;-78
2023/01/18 05:40:26;;;;;;;15.73;8.00;;;;;;;;;;5044209;28;20065;-80
2023/01/18 05:42:53;;;;;;;19.38;8.82;;;;;;;;;;5040280;28;20233;-79
2023/01/18 05:45:22;;;;;;;17.77;8.27;;;;;;;;;;5034754;28;20072;-79
2023/01/18 05:47:49;;;;;;;18.98;9.63;;;;;;;;;;5015517;28;20141;-79
2023/01/18 05:50:15;;;;;;;15.02;8.25;;;;;;;;;;5014145;28;20052;-80
2023/01/18 05:52:42;;;;;;;18.00;9.10;;;;;;;;;;5012807;28;20049;-80
2023/01/18 05:55:08;;;;;;;19.20;8.55;;;;;;;;;;5014148;28;20060;-79
2023/01/18 05:57:35;;;;;;;17.83;8.50;;;;;;;;;;5014165;28;20046;-80
2023/01/18 06:00:02;;;;;;;15.38;8.10;;;;;;;;;;5014922;28;20137;-78
2023/01/18 06:02:31;;;;;;;21.50;10.18;;;;;;;;;;5014948;28;20472;-81
2023/01/18 06:04:57;;;;;;;18.08;8.70;;;;;;;;;;5014374;28;20080;-78
2023/01/18 06:07:24;;;;;;;24.45;9.68;;;;;;;;;;5014477;28;20108;-78
2023/01/18 06:09:50;;;;;;;18.75;9.85;;;;;;;;;;5015484;28;20045;-81
2023/01/18 06:12:16;;;;;;;18.30;9.43;;;;;;;;;;5014378;28;20181;-80
2023/01/18 06:14:43;;;;;;;20.65;9.52;;;;;;;;;;5030879;28;20136;-79
2023/01/18 06:17:09;;;;;;;20.73;9.80;;;;;;;;;;5033232;28;20055;-79
2023/01/18 06:19:36;;;;;;;19.65;9.65;;;;;;;;;;5033781;28;20056;-79
2023/01/18 06:22:02;;;;;;;24.00;10.63;;;;;;;;;;5016622;28;20049;-79
2023/01/18 06:24:29;;;;;;;20.67;10.48;;;;;;;;;;5033222;28;20110;-79
2023/01/18 06:26:56;;;;;;;20.60;10.75;;;;;;;;;;5015723;28;20056;-79
2023/01/18 06:29:23;;;;;;;23.60;11.50;;;;;;;;;;5033638;28;20070;-79
2023/01/18 06:31:49;;;;;;;23.48;10.88;;;;;;;;;;5034126;28;20063;-80
2023/01/18 06:34:16;;;;;;;23.13;11.18;;;;;;;;;;5017483;28;20045;-79
2023/01/18 06:36:44;;;;;;;24.30;11.13;;;;;;;;;;5035311;28;20049;-79
2023/01/18 06:39:10;;;;;;;24.85;10.63;;;;;;;;;;5034854;28;20576;-78
2023/01/18 06:41:37;;;;;;;21.67;10.45;;;;;;;;;;5032811;28;20109;-79
2023/01/18 06:44:04;;;;;;;23.25;11.15;;;;;;;;;;5032287;28;20052;-78
2023/01/18 06:46:32;;;;;;;25.20;10.35;;;;;;;;;;5032752;28;20053;-78
2023/01/18 06:48:58;;;;;;;24.73;11.52;;;;;;;;;;5032666;28;20045;-79
2023/01/18 06:51:25;;;;;;;23.15;11.73;;;;;;;;;;5029517;28;20055;-79
2023/01/18 06:53:51;;;;;;;23.63;11.68;;;;;;;;;;5029288;28;20052;-79
2023/01/18 06:56:17;;;;;;;27.95;12.07;;;;;;;;;;5009418;28;20057;-79
2023/01/18 06:58:44;;;;;;;23.42;11.48;;;;;;;;;;5011864;28;20089;-81
2023/01/18 07:01:10;;;;;;;21.27;11.52;;;;;;;;;;5013456;28;20469;-79
2023/01/18 07:03:37;;;;;;;24.13;11.45;;;;;;;;;;5013237;28;20580;-79
2023/01/18 07:06:05;;;;;;;25.27;11.80;;;;;;;;;;5013345;28;20049;-79
2023/01/18 07:08:31;;;;;;;23.83;11.63;;;;;;;;;;5013213;28;20119;-78
2023/01/18 07:11:02;;;;;;;25.67;11.57;;;;;;;;;;5013988;28;20152;-79
2023/01/18 07:13:28;;;;;;;22.40;11.02;;;;;;;;;;5019888;28;20049;-79
2023/01/18 07:15:57;;;;;;;25.20;11.82;;;;;;;;;;5032883;28;20073;-79
2023/01/18 07:18:27;;;;;;;22.58;10.80;;;;;;;;;;5033096;28;20132;-79
2023/01/18 07:21:01;;;;;;;23.92;11.52;;;;;;;;;;5033426;28;20421;-80
2023/01/18 07:23:28;;;;;;;22.60;11.70;;;;;;;;;;5031164;28;20111;-79
2023/01/18 07:25:58;;;;;;;21.90;11.15;;;;;;;;;;5027118;28;20402;-79
2023/01/18 07:28:25;;;;;;;25.67;11.60;;;;;;;;;;5033047;28;20079;-79
2023/01/18 07:30:51;;;;;;;21.42;10.88;;;;;;;;;;5033086;28;20049;-80
2023/01/18 07:33:18;;;;;;;21.08;10.55;;;;;;;;;;5037322;28;20067;-78
2023/01/18 07:35:44;;;;;;;22.77;10.98;;;;;;;;;;5040221;28;20053;-79
2023/01/18 07:38:10;;;;;;;21.77;10.30;;;;;;;;;;5032446;28;20053;-80
2023/01/18 07:40:37;;;;;;;24.40;11.05;;;;;;;;;;5035752;28;20555;-80
2023/01/18 07:43:03;;;;;;;21.35;11.02;;;;;;;;;;5019566;28;20060;-80
2023/01/18 07:45:30;;;;;;;22.58;10.90;;;;;;;;;;5036999;28;20473;-80
2023/01/18 07:47:56;;;;;;;24.35;10.38;;;;;;;;;;5037035;28;20048;-81
2023/01/18 07:50:22;;;;;;;25.55;10.98;;;;;;;;;;5037487;28;20484;-81
2023/01/18 07:52:49;;;;;;;21.58;10.57;;;;;;;;;;5036953;28;20137;-80
2023/01/18 07:55:15;;;;;;;21.20;10.73;;;;;;;;;;5037916;28;20049;-80
2023/01/18 07:57:42;;;;;;;22.67;10.98;;;;;;;;;;5017416;28;20118;-80
2023/01/18 08:00:10;;;;;;;24.85;10.88;;;;;;;;;;5034837;28;20045;-80
2023/01/18 08:02:36;;;;;;;23.13;11.95;;;;;;;;;;5036142;28;20346;-80
2023/01/18 08:05:03;;;;;;;20.60;10.48;;;;;;;;;;5033890;28;20049;-79
2023/01/18 08:07:33;;;;;;;25.10;11.38;;;;;;;;;;5037165;28;20041;-79
2023/01/18 08:09:59;;;;;;;23.05;11.00;;;;;;;;;;5035477;28;20088;-79
2023/01/18 08:12:26;;;;;;;19.77;10.02;;;;;;;;;;5034573;28;20051;-80
2023/01/18 08:14:52;;;;;;;20.50;10.10;;;;;;;;;;5034373;28;20080;-79
2023/01/18 08:17:19;;;;;;;20.17;10.18;;;;;;;;;;5033728;28;20132;-79
2023/01/18 08:19:45;;;;;;;22.73;11.30;;;;;;;;;;5034836;28;20052;-79
2023/01/18 08:22:12;;;;;;;21.75;10.82;;;;;;;;;;5035371;28;20104;-80
2023/01/18 08:24:39;;;;;;;21.23;10.60;;;;;;;;;;5034953;28;20164;-80
2023/01/18 08:27:06;;;;;;;21.95;10.10;;;;;;;;;;5016343;28;20417;-80
2023/01/18 08:29:32;;;;;;;19.90;10.70;;;;;;;;;;5016724;28;20057;-80
2023/01/18 08:32:03;;;;;;;19.83;10.57;;;;;;;;;;5034109;28;20128;-80
2023/01/18 08:34:32;;;;;;;22.10;10.75;;;;;;;;;;5034482;28;20452;-80
2023/01/18 08:36:58;;;;;;;19.20;10.35;;;;;;;;;;5036156;28;20053;-81
2023/01/18 08:39:29;;;;;;;21.83;9.90;;;;;;;;;;5037841;28;20448;-80
2023/01/18 08:41:58;;;;;;;24.05;11.05;;;;;;;;;;5039452;28;20120;-79
2023/01/18 08:44:28;;;;;;;26.40;11.38;;;;;;;;;;5022098;28;20149;-79
2023/01/18 08:46:56;;;;;;;19.00;9.48;;;;;;;;;;5041240;28;20046;-79
2023/01/18 08:49:23;;;;;;;18.30;8.88;;;;;;;;;;5032644;28;20057;-79
2023/01/18 08:51:50;;;;;;;16.13;8.43;;;;;;;;;;5032269;28;20123;-79
2023/01/18 08:54:17;;;;;;;19.75;9.43;;;;;;;;;;5016005;28;20049;-79
2023/01/18 08:56:43;;;;;;;20.88;9.63;;;;;;;;;;5033406;28;20069;-79
2023/01/18 08:59:09;;;;;;;18.00;9.98;;;;;;;;;;5029967;28;20052;-79
2023/01/18 09:01:36;;;;;;;18.33;9.68;;;;;;;;;;5019387;28;20119;-79
2023/01/18 09:04:02;;;;;;;20.23;10.32;;;;;;;;;;5032493;28;20046;-79
2023/01/18 09:06:30;;;;;;;18.90;10.15;;;;;;;;;;5017677;28;20056;-79
2023/01/18 09:08:58;;;;;;;23.52;11.98;;;;;;;;;;5033061;28;20049;-78
2023/01/18 09:11:25;;;;;;;24.92;12.10;;;;;;;;;;5034281;28;20306;-79
2023/01/18 09:13:52;;;;;;;25.27;12.52;;;;;;;;;;5033927;28;20144;-79
2023/01/18 09:16:26;;;;;;;24.23;11.38;;;;;;;;;;5026356;28;20052;-78
2023/01/18 09:18:55;;;;;;;23.38;11.88;;;;;;;;;;5034072;28;20137;-78
2023/01/18 09:21:21;;;;;;;23.00;11.38;;;;;;;;;;5016446;28;20056;-79
2023/01/18 09:23:49;;;;;;;24.27;10.85;;;;;;;;;;5034118;28;20100;-79
2023/01/18 09:26:17;;;;;;;22.10;11.07;;;;;;;;;;5034858;28;20061;-79
2023/01/18 09:28:43;;;;;;;21.13;10.38;;;;;;;;;;5034069;28;20207;-78
2023/01/18 09:31:11;;;;;;;20.25;10.52;;;;;;;;;;5034176;28;20056;-78
2023/01/18 09:33:38;;;;;;;20.23;10.80;;;;;;;;;;5038525;28;20053;-77
2023/01/18 09:36:06;;;;;;;27.95;11.00;;;;;;;;;;5024437;28;20088;-79
2023/01/18 09:38:34;;;;;;;21.25;10.65;;;;;;;;;;5037193;28;20512;-80
2023/01/18 09:41:01;;;;;;;18.80;9.52;;;;;;;;;;5035494;28;20050;-80
2023/01/18 09:43:31;;;;;;;23.52;9.35;;;;;;;;;;5035306;28;20056;-80
2023/01/18 09:45:58;;;;;;;23.17;9.65;;;;;;;;;;5033506;28;20046;-79
2023/01/18 09:48:24;;;;;;;18.17;8.93;;;;;;;;;;5035935;28;20121;-79
2023/01/18 09:50:52;;;;;;;18.75;9.60;;;;;;;;;;5035212;28;20683;-79
2023/01/18 09:53:37;;;;;;;17.98;9.40;;;;;;;;;;5035064;28;20154;-79
2023/01/18 09:56:15;;;;;;;23.17;10.70;;;;;;;;;;5034536;28;20049;-79
2023/01/18 09:58:49;;;;;;;22.88;10.30;;;;;;;;;;5037010;28;20448;-78
2023/01/18 10:01:21;;;;;;;24.45;11.30;;;;;;;;;;5038568;28;20045;-78
2023/01/18 10:03:48;;;;;;;20.75;10.05;;;;;;;;;;5018134;28;20053;-78
2023/01/18 10:06:26;;;;;;;20.08;10.20;;;;;;;;;;5033104;28;20044;-78
2023/01/18 10:09:03;;;;;;;20.95;11.18;;;;;;;;;;5032861;28;20053;-78
2023/01/18 10:11:35;;;;;;;17.08;9.20;;;;;;;;;;5033726;28;20061;-79
2023/01/18 10:14:18;;;;;;;20.30;10.15;;;;;;;;;;5033304;28;20143;-80
2023/01/18 10:16:50;;;;;;;17.80;9.10;;;;;;;;;;5034527;28;20084;-80
2023/01/18 10:19:20;;;;;;;17.02;8.40;;;;;;;;;;5033938;28;20045;-80
2023/01/18 10:21:49;;;;;;;17.15;8.77;;;;;;;;;;5016448;28;20408;-80
2023/01/18 10:24:25;;;;;;;17.73;9.05;;;;;;;;;;5033964;28;20046;-80
2023/01/18 10:26:52;;;;;;;20.05;9.25;;;;;;;;;;5033233;28;20046;-80
2023/01/18 10:29:33;;;;;;;16.55;9.77;;;;;;;;;;5033624;28;20140;-80
2023/01/18 10:32:03;;;;;;;21.95;10.63;;;;;;;;;;5033082;28;20137;-81
2023/01/18 10:34:34;;;;;;;18.38;10.35;;;;;;;;;;5032066;28;20053;-80
2023/01/18 10:37:11;;;;;;;17.15;8.88;;;;;;;;;;5033806;28;20383;-80
2023/01/18 10:39:40;;;;;;;17.02;9.65;;;;;;;;;;5037045;28;20072;-80
2023/01/18 10:42:18;;;;;;;17.23;9.48;;;;;;;;;;5016076;28;20049;-81
2023/01/18 10:44:44;;;;;;;24.48;11.38;;;;;;;;;;5032314;28;20264;-81
2023/01/18 10:47:15;;;;;;;28.95;12.63;;;;;;;;;;5031183;28;20041;-81
2023/01/18 10:49:44;;;;;;;41.85;13.90;;;;;;;;;;5026143;28;20050;-80
2023/01/18 10:52:17;;;;;;;42.20;14.43;;;;;;;;;;5033038;28;20513;-80
2023/01/18 10:55:10;;;;;;;31.42;11.93;;;;;;;;;;5031690;28;20046;-80
2023/01/18 10:57:42;;;;;;;43.50;14.40;;;;;;;;;;5026670;28;20473;-80
2023/01/18 11:00:22;;;;;;;39.97;13.85;;;;;;;;;;5032713;28;20459;-79
2023/01/18 11:02:50;;;;;;;25.90;10.98;;;;;;;;;;5031365;28;20064;-80
2023/01/18 11:05:31;;;;;;;15.05;7.55;;;;;;;;;;5032251;28;20048;-80
2023/01/18 11:08:10;;;;;;;14.85;7.82;;;;;;;;;;5032293;28;20053;-79
2023/01/18 11:10:37;;;;;;;28.25;11.40;;;;;;;;;;5035479;28;20049;-80
2023/01/18 11:13:21;;;;;;;16.00;8.35;;;;;;;;;;5032061;28;20080;-80
2023/01/18 11:15:50;;;;;;;14.30;8.25;;;;;;;;;;5026145;28;20050;-80
2023/01/18 11:18:17;;;;;;;14.73;8.63;;;;;;;;;;5032790;28;20108;-81
2023/01/18 11:20:47;;;;;;;15.55;8.65;;;;;;;;;;5037578;28;20055;-80
2023/01/18 11:23:20;;;;;;;13.13;7.63;;;;;;;;;;5040095;28;20109;-80
2023/01/18 11:26:00;;;;;;;14.38;8.20;;;;;;;;;;5023636;28;20053;-81
2023/01/18 11:28:30;;;;;;;14.98;8.40;;;;;;;;;;5041209;28;20057;-79
2023/01/18 11:31:16;;;;;;;14.13;8.00;;;;;;;;;;5018370;28;20053;-82
2023/01/18 11:33:48;;;;;;;26.00;9.90;;;;;;;;;;5030685;28;20049;-80
2023/01/18 11:36:15;;;;;;;13.85;8.00;;;;;;;;;;5025516;28;20120;-79
2023/01/18 11:38:42;;;;;;;21.13;9.15;;;;;;;;;;5012781;28;20060;-80
2023/01/18 11:41:15;;;;;;;17.08;8.57;;;;;;;;;;5013632;28;20057;-80
2023/01/18 11:44:00;;;;;;;16.38;9.10;;;;;;;;;;5017331;28;20042;-80
2023/01/18 11:46:37;;;;;;;19.70;8.97;;;;;;;;;;5029754;28;20054;-80
2023/01/18 11:49:35;;;;;;;14.20;7.10;;;;;;;;;;5019153;28;20073;-80
2023/01/18 11:52:06;;;;;;;12.15;6.45;;;;;;;;;;5004280;28;20141;-80
2023/01/18 11:54:39;;;;;;;14.15;7.80;;;;;;;;;;5029561;28;20046;-80
2023/01/18 11:57:11;;;;;;;15.75;8.43;;;;;;;;;;5032725;28;20077;-81
2023/01/18 11:59:42;;;;;;;17.73;9.50;;;;;;;;;;5033106;28;20596;-79
2023/01/18 12:02:28;;;;;;;17.20;9.68;;;;;;;;;;5035435;28;20129;-79
2023/01/18 12:05:14;;;;;;;21.17;11.57;;;;;;;;;;5033585;28;20049;-81
2023/01/18 12:08:02;;;;;;;21.77;12.32;;;;;;;;;;5032639;28;20116;-81
2023/01/18 12:10:43;;;;;;;20.08;11.80;;;;;;;;;;5014912;28;20215;-81
2023/01/18 12:13:25;;;;;;;24.75;12.57;;;;;;;;;;5032582;28;20518;-81
2023/01/18 12:16:01;;;;;;;20.52;11.55;;;;;;;;;;5030445;28;20077;-80
2023/01/18 12:18:33;;;;;;;20.23;11.90;;;;;;;;;;5030367;28;20510;-78
2023/01/18 12:21:02;;;;;;;23.83;11.35;;;;;;;;;;5031733;28;20296;-78
2023/01/18 12:23:30;;;;;;;18.23;10.43;;;;;;;;;;5030831;28;20085;-80
2023/01/18 12:26:05;;;;;;;19.02;10.43;;;;;;;;;;5008341;28;20111;-79
2023/01/18 12:28:56;;;;;;;20.13;11.25;;;;;;;;;;5013398;28;20269;-79
2023/01/18 12:31:31;;;;;;;38.85;16.33;;;;;;;;;;5012642;28;20064;-80
2023/01/18 12:33:57;;;;;;;23.10;11.20;;;;;;;;;;5014255;28;20057;-79
2023/01/18 12:36:44;;;;;;;18.00;10.07;;;;;;;;;;5028387;28;20529;-82
2023/01/18 12:39:19;;;;;;;18.08;9.52;;;;;;;;;;5024268;28;20308;-80
2023/01/18 12:41:58;;;;;;;18.90;10.20;;;;;;;;;;5035614;28;20137;-80
2023/01/18 12:44:37;;;;;;;16.52;9.63;;;;;;;;;;5034984;28;20046;-78
2023/01/18 12:47:04;;;;;;;19.08;9.88;;;;;;;;;;5033911;28;20076;-80
2023/01/18 12:49:33;;;;;;;18.63;10.65;;;;;;;;;;5034199;28;20059;-80
2023/01/18 12:52:01;;;;;;;20.60;10.93;;;;;;;;;;5034790;28;20059;-80
2023/01/18 12:54:49;;;;;;;18.63;10.27;;;;;;;;;;5034669;28;20053;-81
2023/01/18 12:57:16;;;;;;;18.80;10.65;;;;;;;;;;5017065;28;20049;-79
2023/01/18 12:59:52;;;;;;;17.60;10.18;;;;;;;;;;5034630;28;20041;-80
2023/01/18 13:02:33;;;;;;;18.35;10.30;;;;;;;;;;5035371;28;20080;-80
2023/01/18 13:05:21;;;;;;;18.35;10.50;;;;;;;;;;5034973;28;20045;-79
2023/01/18 13:07:55;;;;;;;20.60;11.07;;;;;;;;;;5035022;28;20054;-80
2023/01/18 13:10:26;;;;;;;18.95;10.32;;;;;;;;;;5037144;28;20068;-81
2023/01/18 13:12:54;;;;;;;21.90;11.95;;;;;;;;;;5038228;28;20141;-81
2023/01/18 13:15:37;;;;;;;20.63;11.10;;;;;;;;;;5038003;28;20085;-81
2023/01/18 13:18:09;;;;;;;21.10;10.00;;;;;;;;;;5035606;28;20053;-82
2023/01/18 13:20:36;;;;;;;18.10;9.75;;;;;;;;;;5035407;28;20045;-79
2023/01/18 13:23:35;;;;;;;17.58;9.27;;;;;;;;;;5034846;28;20092;-79
2023/01/18 13:26:24;;;;;;;30.20;13.05;;;;;;;;;;5022724;28;20091;-80
2023/01/18 13:29:09;;;;;;;21.88;10.75;;;;;;;;;;5036398;28;20496;-81
2023/01/18 13:31:36;;;;;;;18.23;9.70;;;;;;;;;;5034798;28;20079;-81
2023/01/18 13:34:02;;;;;;;15.57;9.13;;;;;;;;;;5033463;28;20817;-80
2023/01/18 13:36:43;;;;;;;18.67;9.52;;;;;;;;;;5036812;28;20107;-79
2023/01/18 13:39:13;;;;;;;18.50;10.18;;;;;;;;;;5033793;28;20616;-81
2023/01/18 13:41:59;;;;;;;19.90;10.05;;;;;;;;;;5036186;28;20052;-81
2023/01/18 13:44:31;;;;;;;21.13;10.27;;;;;;;;;;5032725;28;20052;-80
2023/01/18 13:47:00;;;;;;;17.48;9.60;;;;;;;;;;5029910;28;20134;-79
2023/01/18 13:49:36;;;;;;;17.95;10.32;;;;;;;;;;5025193;28;20046;-81
2023/01/18 13:52:30;;;;;;;17.15;9.13;;;;;;;;;;5022942;28;20038;-82
2023/01/18 13:54:59;;;;;;;15.27;9.02;;;;;;;;;;5020754;28;20148;-81
2023/01/18 13:57:27;;;;;;;15.85;8.80;;;;;;;;;;5002920;28;20069;-81
2023/01/18 13:59:54;;;;;;;18.73;9.00;;;;;;;;;;5020204;28;20192;-81
2023/01/18 14:02:25;;;;;;;19.95;9.75;;;;;;;;;;5018747;28;20038;-81
2023/01/18 14:05:18;;;;;;;15.80;8.10;;;;;;;;;;5019381;28;20087;-81
2023/01/18 14:07:46;;;;;;;15.63;8.50;;;;;;;;;;5016435;28;20053;-79
2023/01/18 14:10:32;;;;;;;13.93;8.48;;;;;;;;;;5011749;28;20763;-80
2023/01/18 14:13:00;;;;;;;14.48;7.72;;;;;;;;;;5008755;28;20058;-79
2023/01/18 14:15:46;;;;;;;17.67;8.55;;;;;;;;;;5026444;28;20378;-80
2023/01/18 14:18:22;;;;;;;10.97;6.37;;;;;;;;;;5026966;28;20049;-79
2023/01/18 14:21:05;;;;;;;11.55;6.95;;;;;;;;;;5001791;28;20057;-82
2023/01/18 14:23:46;;;;;;;13.00;7.38;;;;;;;;;;5019384;28;20045;-79
2023/01/18 14:26:18;;;;;;;12.88;7.20;;;;;;;;;;5020621;28;20053;-80
2023/01/18 14:28:47;;;;;;;12.23;6.78;;;;;;;;;;5019811;28;20057;-81
2023/01/18 14:31:17;;;;;;;13.32;7.28;;;;;;;;;;5009410;28;20050;-81
2023/01/18 14:33:43;;;;;;;14.00;7.40;;;;;;;;;;5030899;28;20053;-82
2023/01/18 14:36:21;;;;;;;17.13;8.82;;;;;;;;;;5032556;28;20088;-80
2023/01/18 14:39:05;;;;;;;14.95;7.45;;;;;;;;;;5033614;28;20075;-80
2023/01/18 14:41:31;;;;;;;13.50;7.75;;;;;;;;;;5034248;28;20057;-80
2023/01/18 14:43:58;;;;;;;12.75;7.00;;;;;;;;;;5034451;28;20323;-79
2023/01/18 14:46:25;;;;;;;13.93;7.43;;;;;;;;;;5030302;28;20081;-79
2023/01/18 14:48:53;;;;;;;12.32;7.03;;;;;;;;;;5031318;28;20045;-80
2023/01/18 14:51:21;;;;;;;11.35;6.60;;;;;;;;;;5015204;28;20148;-80
2023/01/18 14:53:53;;;;;;;15.57;7.78;;;;;;;;;;5032057;28;20502;-81
2023/01/18 14:56:27;;;;;;;12.70;7.18;;;;;;;;;;5023086;28;20497;-79
2023/01/18 14:58:58;;;;;;;13.25;7.10;;;;;;;;;;5012486;28;20052;-79
2023/01/18 15:01:36;;;;;;;12.90;6.65;;;;;;;;;;5011563;28;20134;-79
2023/01/18 15:04:15;;;;;;;16.67;7.63;;;;;;;;;;5011726;28;20138;-79
2023/01/18 15:06:44;;;;;;;12.15;7.00;;;;;;;;;;5022448;28;20132;-81
2023/01/18 15:09:11;;;;;;;11.05;6.43;;;;;;;;;;5029811;28;20506;-81
2023/01/18 15:11:41;;;;;;;14.85;7.82;;;;;;;;;;5015444;28;20049;-81
2023/01/18 15:14:28;;;;;;;15.20;7.38;;;;;;;;;;5025925;28;20086;-81
2023/01/18 15:16:55;;;;;;;12.75;7.03;;;;;;;;;;5004711;28;20476;-81